createdAt,value
2023-05-02T00:00:20.181Z,28.66
2023-05-02T00:01:20.247Z,28.07
2023-05-02T00:02:20.384Z,28.11
2023-05-02T00:03:20.413Z,28.04
2023-05-02T00:04:20.420Z,25.81
2023-05-02T00:05:20.497Z,28.08
2023-05-02T00:06:20.570Z,25.08
2023-05-02T00:07:20.567Z,30.59
2023-05-02T00:08:20.619Z,28.14
2023-05-02T00:09:20.675Z,29.57
2023-05-02T00:10:20.704Z,27.90
2023-05-02T00:11:20.798Z,31.80
2023-05-02T00:12:20.836Z,28.83
2023-05-02T00:13:20.887Z,30.37
2023-05-02T00:14:20.970Z,30.31
2023-05-02T00:15:21.020Z,30.54
2023-05-02T00:16:21.148Z,28.10
2023-05-02T00:17:21.318Z,27.57
2023-05-02T00:18:21.175Z,27.47
2023-05-02T00:19:21.231Z,28.91
2023-05-02T00:20:21.309Z,26.85
2023-05-02T00:21:21.357Z,30.48
2023-05-02T00:22:21.402Z,28.81
2023-05-02T00:23:21.449Z,27.53
2023-05-02T00:24:21.498Z,29.26
2023-05-02T00:25:21.567Z,29.50
2023-05-02T00:26:21.628Z,27.97
2023-05-02T00:27:21.687Z,27.11
2023-05-02T00:28:21.739Z,27.78
2023-05-02T00:29:21.831Z,27.40
2023-05-02T00:30:21.873Z,27.78
2023-05-02T00:31:21.971Z,26.79
2023-05-02T00:32:22.060Z,28.51
2023-05-02T00:33:22.006Z,28.36
2023-05-02T00:34:22.085Z,27.60
2023-05-02T00:35:22.127Z,29.13
2023-05-02T00:36:22.154Z,29.38
2023-05-02T00:37:22.153Z,29.30
2023-05-02T00:38:22.099Z,29.70
2023-05-02T00:39:22.090Z,30.96
2023-05-02T00:40:22.084Z,27.46
2023-05-02T00:41:22.090Z,32.49
2023-05-02T00:42:22.086Z,28.93
2023-05-02T00:43:22.070Z,29.57
2023-05-02T00:44:22.061Z,27.95
2023-05-02T00:45:22.104Z,27.52
2023-05-02T00:46:22.263Z,31.81
2023-05-02T00:47:22.195Z,28.25
2023-05-02T00:48:22.244Z,29.68
2023-05-02T00:49:22.306Z,28.21
2023-05-02T00:50:22.373Z,26.00
2023-05-02T00:51:22.360Z,26.29
2023-05-02T00:52:22.328Z,26.11
2023-05-02T00:53:22.341Z,27.04
2023-05-02T00:54:22.347Z,27.50
2023-05-02T00:55:22.333Z,29.08
2023-05-02T00:56:22.333Z,26.33
2023-05-02T00:57:22.352Z,26.81
2023-05-02T00:58:22.295Z,27.48
2023-05-02T00:59:22.299Z,29.43
2023-05-02T01:00:22.342Z,29.95
2023-05-02T01:01:22.427Z,27.52
2023-05-02T01:02:22.478Z,26.88
2023-05-02T01:03:22.559Z,30.55
2023-05-02T01:04:22.615Z,28.65
2023-05-02T01:05:22.599Z,28.35
2023-05-02T01:06:22.716Z,31.93
2023-05-02T01:07:22.718Z,28.16
2023-05-02T01:08:23.713Z,27.58
2023-05-02T01:09:22.820Z,27.45
2023-05-02T01:10:22.860Z,28.50
2023-05-02T01:11:22.917Z,28.94
2023-05-02T01:12:23.016Z,29.50
2023-05-02T01:13:23.036Z,25.99
2023-05-02T01:14:23.097Z,30.00
2023-05-02T01:15:23.142Z,29.06
2023-05-02T01:16:23.250Z,30.08
2023-05-02T01:18:23.188Z,29.59
2023-05-02T01:19:23.181Z,28.79
2023-05-02T01:20:23.174Z,25.08
2023-05-02T01:21:23.158Z,27.63
2023-05-02T01:22:23.182Z,27.81
2023-05-02T01:23:23.155Z,25.00
2023-05-02T01:24:23.125Z,27.94
2023-05-02T01:25:23.122Z,28.27
2023-05-02T01:26:23.138Z,26.69
2023-05-02T01:27:23.186Z,29.16
2023-05-02T01:28:23.245Z,27.69
2023-05-02T01:29:23.323Z,27.64
2023-05-02T01:30:23.401Z,28.91
2023-05-02T01:31:23.484Z,29.53
2023-05-02T01:32:23.495Z,27.75
2023-05-02T01:33:23.576Z,28.69
2023-05-02T01:34:23.621Z,29.85
2023-05-02T01:35:23.657Z,26.82
2023-05-02T01:36:23.727Z,28.34
2023-05-02T01:37:23.777Z,29.40
2023-05-02T01:38:23.835Z,29.87
2023-05-02T01:39:23.927Z,25.88
2023-05-02T01:40:23.938Z,26.81
2023-05-02T01:41:24.031Z,32.04
2023-05-02T01:42:24.059Z,30.03
2023-05-02T01:43:24.143Z,28.76
2023-05-02T01:44:38.699Z,28.32
2023-05-02T01:45:33.915Z,29.14
2023-05-02T01:46:33.371Z,29.28
2023-05-02T01:47:24.314Z,29.40
2023-05-02T01:48:24.281Z,30.78
2023-05-02T01:49:24.279Z,31.80
2023-05-02T01:50:24.442Z,31.41
2023-05-02T01:51:24.271Z,30.55
2023-05-02T01:52:24.242Z,32.40
2023-05-02T01:53:24.250Z,32.19
2023-05-02T01:54:24.252Z,28.91
2023-05-02T01:55:24.245Z,29.26
2023-05-02T01:56:24.223Z,31.21
2023-05-02T01:57:24.214Z,28.62
2023-05-02T01:58:24.201Z,28.89
2023-05-02T01:59:24.199Z,27.44
2023-05-02T02:00:24.206Z,30.40
2023-05-02T02:01:24.221Z,29.75
2023-05-02T02:02:24.181Z,29.29
2023-05-02T02:03:24.238Z,29.60
2023-05-02T02:04:24.208Z,29.78
2023-05-02T02:05:24.150Z,28.89
2023-05-02T02:06:24.161Z,29.41
2023-05-02T02:07:24.142Z,28.59
2023-05-02T02:08:24.124Z,28.83
2023-05-02T02:09:24.113Z,29.00
2023-05-02T02:10:24.134Z,30.00
2023-05-02T02:11:24.177Z,30.51
2023-05-02T02:12:24.259Z,29.04
2023-05-02T02:13:24.291Z,29.84
2023-05-02T02:14:24.302Z,30.03
2023-05-02T02:15:24.290Z,30.09
2023-05-02T02:16:24.356Z,28.41
2023-05-02T02:17:24.276Z,27.21
2023-05-02T02:18:24.258Z,30.47
2023-05-02T02:19:24.245Z,28.98
2023-05-02T02:20:24.337Z,27.55
2023-05-02T02:21:24.245Z,34.86
2023-05-02T02:22:24.228Z,28.06
2023-05-02T02:23:24.292Z,28.11
2023-05-02T02:24:24.335Z,27.53
2023-05-02T02:25:24.409Z,29.57
2023-05-02T02:26:24.482Z,27.06
2023-05-02T02:27:24.517Z,28.75
2023-05-02T02:28:24.570Z,26.59
2023-05-02T02:29:24.633Z,29.52
2023-05-02T02:30:24.756Z,29.02
2023-05-02T02:31:24.931Z,25.50
2023-05-02T02:32:24.897Z,28.88
2023-05-02T02:33:24.909Z,28.60
2023-05-02T02:34:24.977Z,29.62
2023-05-02T02:35:24.985Z,29.86
2023-05-02T02:36:24.967Z,29.87
2023-05-02T02:37:24.939Z,29.86
2023-05-02T02:38:24.933Z,30.01
2023-05-02T02:39:25.371Z,30.56
2023-05-02T02:40:24.987Z,29.80
2023-05-02T02:41:25.814Z,26.14
2023-05-02T02:42:24.921Z,26.58
2023-05-02T02:43:24.917Z,28.45
2023-05-02T02:44:24.980Z,27.76
2023-05-02T02:45:25.049Z,28.57
2023-05-02T02:46:25.140Z,28.73
2023-05-02T02:47:25.198Z,27.80
2023-05-02T02:48:25.253Z,26.75
2023-05-02T02:49:25.307Z,28.51
2023-05-02T02:50:25.381Z,30.01
2023-05-02T02:51:25.395Z,30.30
2023-05-02T02:52:25.345Z,30.61
2023-05-02T02:53:26.317Z,31.19
2023-05-02T02:54:27.420Z,30.41
2023-05-02T02:55:25.390Z,30.44
2023-05-02T02:56:25.380Z,30.66
2023-05-02T02:57:25.356Z,31.07
2023-05-02T02:58:25.452Z,30.96
2023-05-02T02:59:25.507Z,30.52
2023-05-02T03:00:25.571Z,33.31
2023-05-02T03:01:25.617Z,30.33
2023-05-02T03:02:25.652Z,32.26
2023-05-02T03:03:25.825Z,31.45
2023-05-02T03:04:25.830Z,28.58
2023-05-02T03:05:25.862Z,30.30
2023-05-02T03:06:26.049Z,26.90
2023-05-02T03:07:26.002Z,29.88
2023-05-02T03:08:26.046Z,30.33
2023-05-02T03:09:26.111Z,28.34
2023-05-02T03:10:26.169Z,28.66
2023-05-02T03:11:27.728Z,29.54
2023-05-02T03:12:26.218Z,28.94
2023-05-02T03:13:26.200Z,29.18
2023-05-02T03:14:26.214Z,30.37
2023-05-02T03:15:26.209Z,30.82
2023-05-02T03:16:26.213Z,32.31
2023-05-02T03:17:26.412Z,29.31
2023-05-02T03:18:26.174Z,31.15
2023-05-02T03:19:26.159Z,28.21
2023-05-02T03:20:26.176Z,30.39
2023-05-02T03:21:26.154Z,29.16
2023-05-02T03:22:26.147Z,27.92
2023-05-02T03:23:26.162Z,30.34
2023-05-02T03:24:26.145Z,27.87
2023-05-02T03:25:26.105Z,30.84
2023-05-02T03:26:26.332Z,31.08
2023-05-02T03:27:26.110Z,31.53
2023-05-02T03:28:26.097Z,31.35
2023-05-02T03:29:26.116Z,30.63
2023-05-02T03:30:26.112Z,30.82
2023-05-02T03:31:26.647Z,31.09
2023-05-02T03:32:26.103Z,30.97
2023-05-02T03:33:26.094Z,28.25
2023-05-02T03:34:26.064Z,28.58
2023-05-02T03:35:26.046Z,32.27
2023-05-02T03:36:26.044Z,27.87
2023-05-02T03:37:26.148Z,28.12
2023-05-02T03:38:26.062Z,28.22
2023-05-02T03:39:26.045Z,29.03
2023-05-02T03:40:26.070Z,29.45
2023-05-02T03:41:26.011Z,29.43
2023-05-02T03:42:25.990Z,29.59
2023-05-02T03:43:26.016Z,31.25
2023-05-02T03:44:26.085Z,30.62
2023-05-02T03:45:26.092Z,33.17
2023-05-02T03:46:26.145Z,33.31
2023-05-02T03:47:26.104Z,33.18
2023-05-02T03:48:26.069Z,26.72
2023-05-02T03:49:26.052Z,29.24
2023-05-02T03:50:26.083Z,31.81
2023-05-02T03:51:26.029Z,32.06
2023-05-02T03:52:26.040Z,28.68
2023-05-02T03:53:26.053Z,29.22
2023-05-02T03:54:26.123Z,31.17
2023-05-02T03:55:26.171Z,28.40
2023-05-02T03:56:26.243Z,26.81
2023-05-02T03:57:26.308Z,28.26
2023-05-02T03:58:26.350Z,29.36
2023-05-02T03:59:26.472Z,25.00
2023-05-02T04:00:26.446Z,28.91
2023-05-02T04:01:26.515Z,29.41
2023-05-02T04:02:26.600Z,27.02
2023-05-02T04:03:29.321Z,27.35
2023-05-02T04:04:26.668Z,28.23
2023-05-02T04:05:26.604Z,27.84
2023-05-02T04:06:26.652Z,30.69
2023-05-02T04:07:26.635Z,29.43
2023-05-02T04:08:26.581Z,32.01
2023-05-02T04:09:26.576Z,32.35
2023-05-02T04:10:26.572Z,32.24
2023-05-02T04:11:26.567Z,32.32
2023-05-02T04:12:26.585Z,27.95
2023-05-02T04:13:26.689Z,30.97
2023-05-02T04:14:26.551Z,28.05
2023-05-02T04:15:26.540Z,30.18
2023-05-02T04:16:26.581Z,28.60
2023-05-02T04:17:26.636Z,28.84
2023-05-02T04:18:26.669Z,29.13
2023-05-02T04:19:26.709Z,29.02
2023-05-02T04:20:26.770Z,28.86
2023-05-02T04:21:26.811Z,29.35
2023-05-02T04:22:26.915Z,27.56
2023-05-02T04:23:26.981Z,28.26
2023-05-02T04:24:27.038Z,30.04
2023-05-02T04:25:27.041Z,30.25
2023-05-02T04:26:27.014Z,28.72
2023-05-02T04:27:26.994Z,28.69
2023-05-02T04:28:26.995Z,28.92
2023-05-02T04:29:26.987Z,29.79
2023-05-02T04:30:26.984Z,29.29
2023-05-02T04:31:27.121Z,27.77
2023-05-02T04:32:26.981Z,27.51
2023-05-02T04:33:26.988Z,30.16
2023-05-02T04:34:27.027Z,29.06
2023-05-02T04:35:27.042Z,29.25
2023-05-02T04:36:27.000Z,29.39
2023-05-02T04:37:27.218Z,29.09
2023-05-02T04:38:26.997Z,26.97
2023-05-02T04:39:26.968Z,29.55
2023-05-02T04:40:26.965Z,29.16
2023-05-02T04:41:26.997Z,25.46
2023-05-02T04:42:26.950Z,25.76
2023-05-02T04:43:26.985Z,26.25
2023-05-02T04:44:26.931Z,27.40
2023-05-02T04:45:26.942Z,28.82
2023-05-02T04:46:26.962Z,28.72
2023-05-02T04:47:26.993Z,29.77
2023-05-02T04:48:27.003Z,28.88
2023-05-02T04:49:26.927Z,28.38
2023-05-02T04:50:26.963Z,25.81
2023-05-02T04:51:26.961Z,31.12
2023-05-02T04:52:27.043Z,31.25
2023-05-02T04:53:26.964Z,29.57
2023-05-02T04:54:27.014Z,31.26
2023-05-02T04:55:26.940Z,29.95
2023-05-02T04:56:26.946Z,31.06
2023-05-02T04:57:26.930Z,28.31
2023-05-02T04:58:26.915Z,29.45
2023-05-02T04:59:26.901Z,29.23
2023-05-02T05:00:26.903Z,29.46
2023-05-02T05:01:26.915Z,29.99
2023-05-02T05:02:27.010Z,29.88
2023-05-02T05:03:26.973Z,29.06
2023-05-02T05:04:26.856Z,30.51
2023-05-02T05:05:26.886Z,27.32
2023-05-02T05:06:26.904Z,30.12
2023-05-02T05:07:26.874Z,29.56
2023-05-02T05:08:26.848Z,29.43
2023-05-02T05:09:26.850Z,30.38
2023-05-02T05:10:26.872Z,30.93
2023-05-02T05:11:26.894Z,30.79
2023-05-02T05:12:26.939Z,32.01
2023-05-02T05:13:26.964Z,28.01
2023-05-02T05:14:26.983Z,31.92
2023-05-02T05:15:26.999Z,32.98
2023-05-02T05:16:27.056Z,33.08
2023-05-02T05:17:27.020Z,33.10
2023-05-02T05:18:26.989Z,31.68
2023-05-02T05:19:26.946Z,27.14
2023-05-02T05:20:26.972Z,24.39
2023-05-02T05:21:26.989Z,27.55
2023-05-02T05:22:26.951Z,37.30
2023-05-02T05:23:26.937Z,36.57
2023-05-02T05:24:26.922Z,38.47
2023-05-02T05:25:26.927Z,34.46
2023-05-02T05:26:26.996Z,32.11
2023-05-02T05:27:26.907Z,31.02
2023-05-02T05:28:26.917Z,29.06
2023-05-02T05:29:26.942Z,26.96
2023-05-02T05:30:26.893Z,26.26
2023-05-02T05:31:26.895Z,31.26
2023-05-02T05:32:26.960Z,25.00
2023-05-02T05:33:26.962Z,29.64
2023-05-02T05:34:26.867Z,33.99
2023-05-02T05:35:26.853Z,34.44
2023-05-02T05:36:26.889Z,36.06
2023-05-02T05:37:26.939Z,35.52
2023-05-02T05:38:26.844Z,31.75
2023-05-02T05:39:26.894Z,37.69
2023-05-02T05:40:26.814Z,35.45
2023-05-02T05:41:26.892Z,36.78
2023-05-02T05:42:26.911Z,43.51
2023-05-02T05:43:26.820Z,44.85
2023-05-02T05:44:26.800Z,43.45
2023-05-02T05:45:26.809Z,41.54
2023-05-02T05:46:26.822Z,40.90
2023-05-02T05:47:27.029Z,44.07
2023-05-02T05:48:26.868Z,46.25
2023-05-02T05:49:27.380Z,53.04
2023-05-02T05:50:26.740Z,57.99
2023-05-02T05:51:26.822Z,57.33
2023-05-02T05:52:26.854Z,57.84
2023-05-02T05:53:27.061Z,60.57
2023-05-02T05:54:27.992Z,67.76
2023-05-02T05:55:27.123Z,71.62
2023-05-02T05:56:27.505Z,69.66
2023-05-02T05:57:28.142Z,76.07
2023-05-02T05:58:27.260Z,79.66
2023-05-02T05:59:27.389Z,78.67
2023-05-02T06:00:28.389Z,84.52
2023-05-02T06:01:27.412Z,84.01
2023-05-02T06:02:27.519Z,83.93
2023-05-02T06:03:27.498Z,88.64
2023-05-02T06:04:27.509Z,93.69
2023-05-02T06:05:27.635Z,96.02
2023-05-02T06:06:27.747Z,99.00
2023-05-02T06:07:27.697Z,102.20
2023-05-02T06:08:27.747Z,104.17
2023-05-02T06:09:27.792Z,103.38
2023-05-02T06:10:27.906Z,105.42
2023-05-02T06:11:27.909Z,109.87
2023-05-02T06:12:28.009Z,111.85
2023-05-02T06:13:28.037Z,115.17
2023-05-02T06:14:28.067Z,117.79
2023-05-02T06:15:28.305Z,122.48
2023-05-02T06:16:28.223Z,121.87
2023-05-02T06:17:28.491Z,126.07
2023-05-02T06:18:28.228Z,127.42
2023-05-02T06:19:28.415Z,128.56
2023-05-02T06:20:28.333Z,130.95
2023-05-02T06:21:28.478Z,131.03
2023-05-02T06:22:28.347Z,132.77
2023-05-02T06:23:28.408Z,133.43
2023-05-02T06:24:28.417Z,138.81
2023-05-02T06:25:28.621Z,137.73
2023-05-02T06:26:28.522Z,140.64
2023-05-02T06:27:28.924Z,139.80
2023-05-02T06:28:28.555Z,117.89
2023-05-02T06:29:28.586Z,114.03
2023-05-02T06:30:28.672Z,117.37
2023-05-02T06:31:28.694Z,111.28
2023-05-02T06:32:28.733Z,109.63
2023-05-02T06:33:28.766Z,104.64
2023-05-02T06:34:28.931Z,104.51
2023-05-02T06:35:28.840Z,109.64
2023-05-02T06:36:29.034Z,99.55
2023-05-02T06:37:28.989Z,105.58
2023-05-02T06:38:29.930Z,102.18
2023-05-02T06:39:29.036Z,104.34
2023-05-02T06:40:29.048Z,104.12
2023-05-02T06:41:29.100Z,108.23
2023-05-02T06:42:29.143Z,105.30
2023-05-02T06:43:29.168Z,107.81
2023-05-02T06:44:29.472Z,109.29
2023-05-02T06:45:29.242Z,104.16
2023-05-02T06:46:29.323Z,97.75
2023-05-02T06:47:29.529Z,100.86
2023-05-02T06:48:29.376Z,105.60
2023-05-02T06:49:29.403Z,101.83
2023-05-02T06:50:29.411Z,100.96
2023-05-02T06:51:29.471Z,104.07
2023-05-02T06:52:30.408Z,104.12
2023-05-02T06:53:32.374Z,104.23
2023-05-02T06:54:29.609Z,105.43
2023-05-02T06:55:29.476Z,99.40
2023-05-02T06:56:29.474Z,97.03
2023-05-02T06:57:29.473Z,97.72
2023-05-02T06:58:29.455Z,97.84
2023-05-02T06:59:30.355Z,96.71
2023-05-02T07:00:29.490Z,94.21
2023-05-02T07:01:29.473Z,98.63
2023-05-02T07:02:29.557Z,95.47
2023-05-02T07:03:29.423Z,94.70
2023-05-02T07:04:29.521Z,97.04
2023-05-02T07:05:29.432Z,94.63
2023-05-02T07:06:29.496Z,95.78
2023-05-02T07:07:29.474Z,96.40
2023-05-02T07:08:29.429Z,100.78
2023-05-02T07:09:29.424Z,96.60
2023-05-02T07:10:29.393Z,93.14
2023-05-02T07:11:29.368Z,92.33
2023-05-02T07:12:29.442Z,97.26
2023-05-02T07:13:29.369Z,102.92
2023-05-02T07:14:29.466Z,102.46
2023-05-02T07:15:29.345Z,100.63
2023-05-02T07:16:29.436Z,102.49
2023-05-02T07:17:29.413Z,100.82
2023-05-02T07:18:29.314Z,106.91
2023-05-02T07:19:29.933Z,103.99
2023-05-02T07:20:29.433Z,112.75
2023-05-02T07:21:29.309Z,111.32
2023-05-02T07:22:29.539Z,115.30
2023-05-02T07:23:29.314Z,120.49
2023-05-02T07:24:29.284Z,123.77
2023-05-02T07:25:29.463Z,130.56
2023-05-02T07:26:29.284Z,131.47
2023-05-02T07:27:29.445Z,137.01
2023-05-02T07:28:29.445Z,138.38
2023-05-02T07:29:29.833Z,142.16
2023-05-02T07:30:30.066Z,143.09
2023-05-02T07:31:30.646Z,144.40
2023-05-02T07:32:29.497Z,148.07
2023-05-02T07:33:29.323Z,149.69
2023-05-02T07:34:29.238Z,154.18
2023-05-02T07:35:29.427Z,155.78
2023-05-02T07:36:29.433Z,156.44
2023-05-02T07:37:32.032Z,160.76
2023-05-02T07:38:29.261Z,160.98
2023-05-02T07:39:29.174Z,161.18
2023-05-02T07:40:29.709Z,161.02
2023-05-02T07:41:29.169Z,162.17
2023-05-02T07:42:29.567Z,167.49
2023-05-02T07:43:29.187Z,135.77
2023-05-02T07:44:29.373Z,128.60
2023-05-02T07:45:29.587Z,147.33
2023-05-02T07:46:32.270Z,157.79
2023-05-02T07:47:29.559Z,157.98
2023-05-02T07:48:30.740Z,158.62
2023-05-02T07:49:30.584Z,161.38
2023-05-02T07:50:30.524Z,164.69
2023-05-02T07:51:29.336Z,166.25
2023-05-02T07:52:29.685Z,167.15
2023-05-02T07:53:29.453Z,167.32
2023-05-02T07:54:29.563Z,165.98
2023-05-02T07:55:29.700Z,166.98
2023-05-02T07:56:29.664Z,168.13
2023-05-02T07:57:30.530Z,120.17
2023-05-02T07:58:31.709Z,8.38
2023-05-02T08:00:49.071Z,25.00
2023-05-02T08:01:48.738Z,25.00
2023-05-02T08:02:48.932Z,25.00
2023-05-02T08:03:50.823Z,25.00
2023-05-02T08:04:48.872Z,25.00
2023-05-02T08:05:50.528Z,25.00
2023-05-02T08:06:48.762Z,25.00
2023-05-02T08:07:48.638Z,25.00
2023-05-02T08:08:52.570Z,25.00
2023-05-02T08:09:49.640Z,25.00
2023-05-02T08:10:48.702Z,25.00
2023-05-02T08:11:48.814Z,25.00
2023-05-02T08:12:49.227Z,25.00
2023-05-02T08:13:49.974Z,25.00
2023-05-02T08:14:48.663Z,25.22
2023-05-02T08:15:49.103Z,26.90
2023-05-02T08:16:49.100Z,28.78
2023-05-02T08:17:49.587Z,28.92
2023-05-02T08:18:48.549Z,28.60
2023-05-02T08:19:48.566Z,25.05
2023-05-02T08:20:48.937Z,25.56
2023-05-02T08:21:48.536Z,28.78
2023-05-02T08:22:48.978Z,31.04
2023-05-02T08:23:48.612Z,31.29
2023-05-02T08:24:48.509Z,27.08
2023-05-02T08:25:48.493Z,33.26
2023-05-02T08:26:48.513Z,38.74
2023-05-02T08:27:48.486Z,37.44
2023-05-02T08:28:48.466Z,43.47
2023-05-02T08:29:48.500Z,37.09
2023-05-02T08:30:48.485Z,39.99
2023-05-02T08:31:48.537Z,39.39
2023-05-02T08:32:49.079Z,35.32
2023-05-02T08:33:48.482Z,35.90
2023-05-02T08:34:48.548Z,36.07
2023-05-02T08:35:49.471Z,36.30
2023-05-02T08:36:48.523Z,19.01
2023-05-02T08:37:48.417Z,0.00
2023-05-02T08:38:48.426Z,0.00
2023-05-02T08:39:48.403Z,0.00
2023-05-02T08:40:48.481Z,18.07
2023-05-02T08:41:48.394Z,49.54
2023-05-02T08:42:48.982Z,53.25
2023-05-02T08:43:48.386Z,54.07
2023-05-02T08:44:48.450Z,56.00
2023-05-02T08:45:48.359Z,51.28
2023-05-02T08:46:48.434Z,47.19
2023-05-02T08:47:48.414Z,52.41
2023-05-02T08:48:48.363Z,48.71
2023-05-02T08:49:48.378Z,63.18
2023-05-02T08:50:48.535Z,49.91
2023-05-02T08:51:48.377Z,48.38
2023-05-02T08:52:48.317Z,48.55
2023-05-02T08:53:48.363Z,47.34
2023-05-02T08:54:48.375Z,49.55
2023-05-02T08:55:48.437Z,46.28
2023-05-02T08:56:48.432Z,51.92
2023-05-02T08:57:48.462Z,52.22
2023-05-02T08:58:48.460Z,48.54
2023-05-02T08:59:48.512Z,48.60
2023-05-02T09:00:48.565Z,51.49
2023-05-02T09:01:48.865Z,47.49
2023-05-02T09:02:48.616Z,48.43
2023-05-02T09:03:48.704Z,40.49
2023-05-02T09:04:48.691Z,33.54
2023-05-02T09:05:48.597Z,37.20
2023-05-02T09:06:48.711Z,31.78
2023-05-02T09:07:48.720Z,29.61
2023-05-02T09:08:48.712Z,25.00
2023-05-02T09:09:48.703Z,29.84
2023-05-02T09:10:48.709Z,30.99
2023-05-02T09:11:48.795Z,27.03
2023-05-02T09:12:49.254Z,29.01
2023-05-02T09:13:49.821Z,26.44
2023-05-02T09:14:49.242Z,25.85
2023-05-02T09:15:49.009Z,32.67
2023-05-02T09:16:49.014Z,32.80
2023-05-02T09:17:49.084Z,30.42
2023-05-02T09:18:49.132Z,31.12
2023-05-02T09:19:49.116Z,27.05
2023-05-02T09:20:49.125Z,28.70
2023-05-02T09:21:49.194Z,30.20
2023-05-02T09:22:49.450Z,28.73
2023-05-02T09:23:49.236Z,29.41
2023-05-02T09:24:49.251Z,26.93
2023-05-02T09:25:49.388Z,27.66
2023-05-02T09:26:49.335Z,26.58
2023-05-02T09:27:49.460Z,26.85
2023-05-02T09:28:49.483Z,31.71
2023-05-02T09:29:49.517Z,35.68
2023-05-02T09:30:49.932Z,38.62
2023-05-02T09:31:55.711Z,29.71
2023-05-02T09:32:50.962Z,29.91
2023-05-02T09:33:49.579Z,11.21
2023-05-02T09:34:49.570Z,24.05
2023-05-02T09:35:49.608Z,19.90
2023-05-02T09:36:49.539Z,24.44
2023-05-02T09:37:49.571Z,32.83
2023-05-02T09:38:49.594Z,29.62
2023-05-02T09:39:49.613Z,40.28
2023-05-02T09:40:49.538Z,39.61
2023-05-02T09:41:49.556Z,39.86
2023-05-02T09:42:49.515Z,41.21
2023-05-02T09:43:49.573Z,45.87
2023-05-02T09:44:49.512Z,28.76
2023-05-02T09:45:49.541Z,14.84
2023-05-02T09:46:49.469Z,13.38
2023-05-02T09:47:49.509Z,5.26
2023-05-02T09:48:49.477Z,8.60
2023-05-02T09:49:49.451Z,3.82
2023-05-02T09:50:49.464Z,19.71
2023-05-02T09:51:49.463Z,4.50
2023-05-02T09:52:49.483Z,25.13
2023-05-02T09:53:50.024Z,21.02
2023-05-02T09:54:49.458Z,25.54
2023-05-02T09:55:49.481Z,61.00
2023-05-02T09:56:49.573Z,85.09
2023-05-02T09:57:49.585Z,109.17
2023-05-02T09:58:49.683Z,129.60
2023-05-02T09:59:49.728Z,141.75
2023-05-02T10:00:49.765Z,162.64
2023-05-02T10:01:49.865Z,177.53
2023-05-02T10:02:49.891Z,188.83
2023-05-02T10:03:49.980Z,185.10
2023-05-02T10:04:49.990Z,194.13
2023-05-02T10:05:50.443Z,223.96
2023-05-02T10:06:50.173Z,216.99
2023-05-02T10:07:50.160Z,238.38
2023-05-02T10:08:50.463Z,246.10
2023-05-02T10:09:50.261Z,250.00
2023-05-02T10:10:50.465Z,248.74
2023-05-02T10:11:50.342Z,252.54
2023-05-02T10:12:50.418Z,245.82
2023-05-02T10:13:50.448Z,244.50
2023-05-02T10:14:50.520Z,239.75
2023-05-02T10:15:50.553Z,238.75
2023-05-02T10:16:50.612Z,237.42
2023-05-02T10:17:50.684Z,250.00
2023-05-02T10:18:50.711Z,247.83
2023-05-02T10:19:50.736Z,250.00
2023-05-02T10:20:50.806Z,252.54
2023-05-02T10:21:50.796Z,249.09
2023-05-02T10:22:51.065Z,214.36
2023-05-02T10:23:50.886Z,139.06
2023-05-02T10:24:50.940Z,100.77
2023-05-02T10:25:51.949Z,136.81
2023-05-02T10:26:51.120Z,143.58
2023-05-02T10:27:51.149Z,137.78
2023-05-02T10:28:51.171Z,132.45
2023-05-02T10:29:51.261Z,133.87
2023-05-02T10:30:51.577Z,129.41
2023-05-02T10:31:51.544Z,131.08
2023-05-02T10:32:51.461Z,129.15
2023-05-02T10:33:51.930Z,138.30
2023-05-02T10:34:51.577Z,136.87
2023-05-02T10:35:51.988Z,140.05
2023-05-02T10:36:51.894Z,140.01
2023-05-02T10:37:51.787Z,138.42
2023-05-02T10:38:51.768Z,140.14
2023-05-02T10:39:51.812Z,140.52
2023-05-02T10:40:51.840Z,141.23
2023-05-02T10:41:51.927Z,140.55
2023-05-02T10:42:51.952Z,132.90
2023-05-02T10:43:53.351Z,126.83
2023-05-02T10:44:52.930Z,127.80
2023-05-02T10:45:52.075Z,130.53
2023-05-02T10:46:52.220Z,131.12
2023-05-02T10:47:52.214Z,131.75
2023-05-02T10:48:52.161Z,121.62
2023-05-02T10:49:52.379Z,125.49
2023-05-02T10:50:52.381Z,136.96
2023-05-02T10:51:52.276Z,131.55
2023-05-02T10:52:52.265Z,133.34
2023-05-02T10:53:54.830Z,130.26
2023-05-02T10:54:52.441Z,135.80
2023-05-02T10:55:53.461Z,139.20
2023-05-02T10:56:52.361Z,133.76
2023-05-02T10:57:52.337Z,140.34
2023-05-02T10:58:52.555Z,143.29
2023-05-02T10:59:52.256Z,143.36
2023-05-02T11:00:52.296Z,138.07
2023-05-02T11:01:52.280Z,141.97
2023-05-02T11:02:52.322Z,137.06
2023-05-02T11:04:00.077Z,139.11
2023-05-02T11:04:52.305Z,143.37
2023-05-02T11:05:52.359Z,143.37
2023-05-02T11:06:52.256Z,143.37
2023-05-02T11:07:52.834Z,138.22
2023-05-02T11:08:52.455Z,134.45
2023-05-02T11:09:52.208Z,126.33
2023-05-02T11:10:52.216Z,115.76
2023-05-02T11:11:52.766Z,123.18
2023-05-02T11:12:52.428Z,126.84
2023-05-02T11:13:52.257Z,126.93
2023-05-02T11:14:52.323Z,130.51
2023-05-02T11:15:52.528Z,130.45
2023-05-02T11:16:52.240Z,130.99
2023-05-02T11:17:52.173Z,138.14
2023-05-02T11:18:52.146Z,138.32
2023-05-02T11:19:52.168Z,144.01
2023-05-02T11:20:52.394Z,142.61
2023-05-02T11:21:52.226Z,141.83
2023-05-02T11:22:52.282Z,143.48
2023-05-02T11:23:53.332Z,141.42
2023-05-02T11:24:53.395Z,138.10
2023-05-02T11:25:52.562Z,139.95
2023-05-02T11:26:52.378Z,139.69
2023-05-02T11:27:52.379Z,142.88
2023-05-02T11:28:52.438Z,134.93
2023-05-02T11:29:52.279Z,139.37
2023-05-02T11:30:52.273Z,141.01
2023-05-02T11:31:52.393Z,137.78
2023-05-02T11:32:52.344Z,140.67
2023-05-02T11:33:52.320Z,138.93
2023-05-02T11:34:52.352Z,134.89
2023-05-02T11:35:52.368Z,136.11
2023-05-02T11:36:52.368Z,134.09
2023-05-02T11:37:52.532Z,127.72
2023-05-02T11:38:52.423Z,123.24
2023-05-02T11:39:52.473Z,121.13
2023-05-02T11:40:52.497Z,119.60
2023-05-02T11:41:52.523Z,108.90
2023-05-02T11:42:52.483Z,112.37
2023-05-02T11:43:52.457Z,113.10
2023-05-02T11:44:52.471Z,109.40
2023-05-02T11:45:52.514Z,112.21
2023-05-02T11:46:52.483Z,113.00
2023-05-02T11:47:52.503Z,109.16
2023-05-02T11:48:52.520Z,109.72
2023-05-02T11:49:52.446Z,105.55
2023-05-02T11:50:53.449Z,105.23
2023-05-02T11:51:52.463Z,107.14
2023-05-02T11:52:52.455Z,97.12
2023-05-02T11:53:52.454Z,100.38
2023-05-02T11:54:52.590Z,105.58
2023-05-02T11:55:52.465Z,102.73
2023-05-02T11:56:52.454Z,103.70
2023-05-02T11:57:52.448Z,101.93
2023-05-02T11:58:52.447Z,100.11
2023-05-02T11:59:52.466Z,96.90
2023-05-02T12:00:52.462Z,95.49
2023-05-02T12:01:52.549Z,97.95
2023-05-02T12:02:52.606Z,100.99
2023-05-02T12:03:52.521Z,102.74
2023-05-02T12:04:52.474Z,102.33
2023-05-02T12:05:52.490Z,103.86
2023-05-02T12:06:52.549Z,94.27
2023-05-02T12:07:52.458Z,100.28
2023-05-02T12:08:52.502Z,108.16
2023-05-02T12:09:52.480Z,108.48
2023-05-02T12:10:52.460Z,103.15
2023-05-02T12:11:52.447Z,96.31
2023-05-02T12:12:52.502Z,97.81
2023-05-02T12:13:52.481Z,99.22
2023-05-02T12:14:52.438Z,100.81
2023-05-02T12:15:52.546Z,102.06
2023-05-02T12:16:52.429Z,108.71
2023-05-02T12:17:52.474Z,110.10
2023-05-02T12:18:52.441Z,113.73
2023-05-02T12:19:52.489Z,115.54
2023-05-02T12:20:52.488Z,115.19
2023-05-02T12:21:52.554Z,111.20
2023-05-02T12:22:52.478Z,108.02
2023-05-02T12:23:52.486Z,101.97
2023-05-02T12:24:52.481Z,115.43
2023-05-02T12:25:52.479Z,116.00
2023-05-02T12:26:53.061Z,113.90
2023-05-02T12:27:52.468Z,117.41
2023-05-02T12:28:52.505Z,120.76
2023-05-02T12:29:52.476Z,117.38
2023-05-02T12:30:52.531Z,122.72
2023-05-02T12:31:52.631Z,114.53
2023-05-02T12:32:52.558Z,113.34
2023-05-02T12:33:52.584Z,112.85
2023-05-02T12:34:52.479Z,118.73
2023-05-02T12:35:52.503Z,118.19
2023-05-02T12:36:52.460Z,119.60
2023-05-02T12:37:52.476Z,122.60
2023-05-02T12:38:52.502Z,122.00
2023-05-02T12:39:52.490Z,123.33
2023-05-02T12:40:52.462Z,122.65
2023-05-02T12:41:52.482Z,109.10
2023-05-02T12:42:52.467Z,106.62
2023-05-02T12:43:52.503Z,98.93
2023-05-02T12:44:52.506Z,101.59
2023-05-02T12:45:52.480Z,98.37
2023-05-02T12:46:52.519Z,96.78